This is the latest recevied weather packets stored in our database for station/object BV5AB-13. If no packets are shown the sender has not sent any weather packets the latest 1 day(s).
| Time | Temp. | Humidity | Pressure | Rain* | Wind** | Luminosity | Snow |
|---|---|---|---|---|---|---|---|
| 1836274798 | 31.67° C | 62% | 1000 hPa | 0 mm | 2.24 m/s, 340° | - | - |
| 1836274197 | 32.22° C | 63% | 1000.1 hPa | 0 mm | 1.79 m/s, 340° | - | - |
| 1778046424 | 28.89° C | 66% | 1001.9 hPa | 0 mm | 2.68 m/s, 0° | - | - |
| 1778045824 | 29.44° C | 67% | 1002 hPa | 0 mm | 2.68 m/s, 0° | - | - |
| 1778045224 | 29.44° C | 64% | 1002 hPa | 0 mm | 1.79 m/s, 10° | - | - |
| 1778044624 | 29.44° C | 64% | 1002.2 hPa | 0 mm | 1.79 m/s, 340° | - | - |
| 1778044024 | 29.44° C | 65% | 1002.2 hPa | 0 mm | 2.24 m/s, 320° | - | - |
| 1778043424 | 29.44° C | 67% | 1002.3 hPa | 0 mm | 1.34 m/s, 280° | - | - |
| 1778042824 | 29.44° C | 68% | 1002.4 hPa | 0 mm | 1.34 m/s, 280° | - | - |
| 1778042223 | 29.44° C | 63% | 1002.5 hPa | 0 mm | 1.34 m/s, 270° | - | - |
| 1778041623 | 29.44° C | 56% | 1002.6 hPa | 0 mm | 1.34 m/s, 300° | - | - |
| 1778041023 | 28.89° C | 58% | 1002.7 hPa | 0 mm | 0.89 m/s, 310° | - | - |
| 1778040423 | 29.44° C | 63% | 1002.8 hPa | 0 mm | 0.89 m/s, 250° | - | - |
| 1778039824 | 28.89° C | 66% | 1002.9 hPa | 0 mm | 0.45 m/s, 60° | - | - |
| 1778039223 | 28.33° C | 66% | 1003.1 hPa | 0 mm | 0.45 m/s, 230° | - | - |
| 1778038623 | 27.78° C | 63% | 1003.3 hPa | 0 mm | 0.45 m/s, 270° | - | - |
| 1778038024 | 27.78° C | 66% | 1003.4 hPa | 0 mm | 0.45 m/s, 260° | - | - |
| 1778037425 | 27.22° C | 66% | 1003.5 hPa | 0 mm | 0.89 m/s, 350° | - | - |
| 1778036824 | 26.67° C | 69% | 1003.5 hPa | 0 mm | 0.89 m/s, 310° | - | - |
| 1778036223 | 26.11° C | 69% | 1003.5 hPa | 0 mm | 0.89 m/s, 300° | - | - |
| 1778035623 | 26.67° C | 71% | 1003.6 hPa | 0 mm | 0.89 m/s, 310° | - | - |
| 1778035024 | 26.11° C | 71% | 1003.8 hPa | 0 mm | 0.89 m/s, 330° | - | - |
| 1778034423 | 25.56° C | 73% | 1003.9 hPa | 0 mm | 1.34 m/s, 10° | - | - |
| 1778033823 | 25.56° C | 76% | 1004 hPa | 0 mm | 0.89 m/s, 340° | - | - |
| 1778033224 | 25° C | 75% | 1004 hPa | 0 mm | 1.79 m/s, 340° | - | - |
* Rain latest hour (hover to see other rain measurements)
** Current wind speed in m/s (hover to see current wind gust speed)